createdAt,value
2023-04-23T00:02:19.626Z,11.50
2023-04-23T00:04:50.958Z,11.40
2023-04-23T00:07:20.139Z,11.40
2023-04-23T00:09:52.538Z,11.40
2023-04-23T00:12:19.477Z,11.40
2023-04-23T00:14:46.711Z,11.40
2023-04-23T00:17:13.761Z,11.40
2023-04-23T00:19:40.943Z,11.40
2023-04-23T00:22:08.030Z,11.30
2023-04-23T00:24:37.015Z,11.30
2023-04-23T00:27:04.094Z,11.30
2023-04-23T00:29:31.346Z,11.20
2023-04-23T00:31:58.569Z,11.20
2023-04-23T00:34:26.271Z,11.20
2023-04-23T00:36:53.157Z,11.20
2023-04-23T00:39:20.296Z,11.20
2023-04-23T00:41:48.259Z,11.20
2023-04-23T00:44:15.290Z,11.20
2023-04-23T00:46:43.319Z,11.10
2023-04-23T00:49:10.973Z,11.10
2023-04-23T00:51:37.929Z,11.10
2023-04-23T00:54:04.899Z,11.10
2023-04-23T00:56:32.436Z,11.10
2023-04-23T00:58:59.707Z,11.10
2023-04-23T01:01:26.633Z,11.10
2023-04-23T01:03:54.061Z,11.00
2023-04-23T01:06:21.566Z,11.00
2023-04-23T01:08:48.734Z,11.00
2023-04-23T01:11:16.234Z,10.90
2023-04-23T01:13:44.012Z,10.90
2023-04-23T01:16:11.911Z,10.90
2023-04-23T01:18:41.246Z,10.90
2023-04-23T01:21:10.775Z,10.80
2023-04-23T01:23:38.210Z,10.80
2023-04-23T01:26:05.351Z,10.80
2023-04-23T01:28:33.271Z,10.80
2023-04-23T01:31:00.914Z,10.80
2023-04-23T01:33:28.384Z,10.80
2023-04-23T01:35:56.607Z,10.70
2023-04-23T01:38:25.296Z,10.80
2023-04-23T01:40:52.403Z,10.70
2023-04-23T01:43:20.284Z,10.70
2023-04-23T01:45:47.262Z,10.70
2023-04-23T01:48:14.710Z,10.70
2023-04-23T01:50:42.492Z,10.70
2023-04-23T01:53:09.440Z,10.60
2023-04-23T01:55:40.167Z,10.60
2023-04-23T01:58:07.359Z,10.60
2023-04-23T02:00:34.165Z,10.60
2023-04-23T02:03:01.195Z,10.60
2023-04-23T02:05:29.316Z,10.60
2023-04-23T02:07:56.782Z,10.60
2023-04-23T02:10:23.788Z,10.60
2023-04-23T02:12:50.555Z,10.50
2023-04-23T02:15:17.658Z,10.50
2023-04-23T02:17:44.535Z,10.50
2023-04-23T02:20:11.817Z,10.40
2023-04-23T02:22:42.228Z,10.40
2023-04-23T02:25:09.837Z,10.40
2023-04-23T02:27:37.043Z,10.40
2023-04-23T02:30:04.525Z,10.30
2023-04-23T02:32:31.599Z,10.30
2023-04-23T02:34:59.696Z,10.30
2023-04-23T02:37:27.093Z,10.30
2023-04-23T02:39:54.360Z,10.30
2023-04-23T02:42:21.354Z,10.20
2023-04-23T02:44:48.186Z,10.20
2023-04-23T02:47:15.094Z,10.20
2023-04-23T02:49:41.853Z,10.10
2023-04-23T02:52:08.915Z,10.10
2023-04-23T02:54:37.213Z,10.00
2023-04-23T02:57:06.071Z,10.00
2023-04-23T02:59:33.140Z,10.00
2023-04-23T03:02:00.252Z,10.00
2023-04-23T03:04:27.815Z,10.00
2023-04-23T03:06:54.677Z,10.00
2023-04-23T03:09:21.570Z,10.00
2023-04-23T03:11:48.415Z,9.90
2023-04-23T03:14:15.300Z,9.90
2023-04-23T03:16:42.162Z,9.90
2023-04-23T03:19:08.925Z,9.90
2023-04-23T03:21:35.734Z,9.90
2023-04-23T03:24:02.549Z,9.80
2023-04-23T03:26:29.327Z,9.80
2023-04-23T03:28:56.278Z,9.90
2023-04-23T03:31:23.212Z,9.90
2023-04-23T03:33:49.947Z,9.90
2023-04-23T03:36:16.792Z,9.80
2023-04-23T03:38:43.814Z,9.90
2023-04-23T03:41:11.346Z,9.90
2023-04-23T03:43:38.309Z,9.90
2023-04-23T03:46:05.234Z,9.90
2023-04-23T03:48:32.294Z,9.90
2023-04-23T03:50:59.272Z,9.90
2023-04-23T03:53:26.294Z,9.90
2023-04-23T03:55:53.141Z,9.90
2023-04-23T03:58:21.375Z,9.90
2023-04-23T04:00:49.099Z,9.90
2023-04-23T04:03:16.491Z,9.90
2023-04-23T04:05:44.499Z,9.90
2023-04-23T04:08:11.436Z,9.90
2023-04-23T04:10:38.205Z,9.90
2023-04-23T04:13:05.116Z,10.00
2023-04-23T04:15:33.062Z,10.00
2023-04-23T04:18:01.171Z,10.00
2023-04-23T04:20:31.142Z,10.10
2023-04-23T04:22:58.063Z,10.10
2023-04-23T04:25:24.962Z,10.10
2023-04-23T04:27:51.758Z,10.20
2023-04-23T04:30:18.760Z,10.30
2023-04-23T04:32:46.580Z,10.30
2023-04-23T04:35:14.513Z,10.40
2023-04-23T04:37:43.821Z,10.40
2023-04-23T04:40:11.656Z,10.50
2023-04-23T04:42:39.191Z,10.60
2023-04-23T04:45:08.706Z,10.60
2023-04-23T04:47:36.504Z,10.70
2023-04-23T04:50:04.483Z,10.80
2023-04-23T04:52:31.821Z,10.80
2023-04-23T04:54:58.743Z,10.90
2023-04-23T04:57:25.679Z,11.00
2023-04-23T04:59:52.731Z,11.10
2023-04-23T05:02:21.622Z,11.20
2023-04-23T05:04:49.514Z,11.20
2023-04-23T05:07:16.267Z,11.30
2023-04-23T05:09:44.880Z,11.40
2023-04-23T05:12:12.195Z,11.50
2023-04-23T05:14:39.027Z,11.50
2023-04-23T05:17:06.101Z,11.60
2023-04-23T05:19:32.840Z,11.70
2023-04-23T05:21:59.965Z,11.80
2023-04-23T05:24:26.999Z,11.90
2023-04-23T05:26:53.837Z,12.00
2023-04-23T05:29:20.672Z,12.10
2023-04-23T05:31:47.570Z,12.20
2023-04-23T05:34:14.300Z,12.20
2023-04-23T05:36:42.124Z,12.30
2023-04-23T05:39:09.300Z,12.40
2023-04-23T05:41:36.110Z,12.50
2023-04-23T05:44:02.929Z,12.60
2023-04-23T05:46:29.921Z,12.70
2023-04-23T05:48:56.914Z,12.80
2023-04-23T05:51:24.785Z,13.00
2023-04-23T05:53:51.511Z,13.10
2023-04-23T05:56:18.688Z,13.20
2023-04-23T05:58:45.651Z,13.30
2023-04-23T06:01:12.679Z,13.40
2023-04-23T06:03:42.998Z,13.60
2023-04-23T06:06:10.511Z,13.60
2023-04-23T06:08:37.493Z,13.80
2023-04-23T06:11:04.815Z,13.90
2023-04-23T06:13:31.958Z,14.00
2023-04-23T06:15:59.566Z,14.20
2023-04-23T06:18:27.635Z,14.30
2023-04-23T06:20:56.916Z,14.50
2023-04-23T06:23:23.762Z,14.60
2023-04-23T06:25:51.220Z,14.70
2023-04-23T06:28:18.364Z,14.90
2023-04-23T06:30:45.392Z,15.00
2023-04-23T06:33:12.593Z,15.20
2023-04-23T06:35:39.452Z,15.30
2023-04-23T06:38:06.669Z,15.40
2023-04-23T06:40:33.902Z,15.60
2023-04-23T06:43:04.435Z,15.70
2023-04-23T06:45:33.232Z,15.90
2023-04-23T06:48:00.657Z,16.00
2023-04-23T06:50:27.785Z,16.20
2023-04-23T06:52:56.373Z,16.30
2023-04-23T06:55:26.203Z,16.50
2023-04-23T06:57:53.477Z,16.60
2023-04-23T07:00:20.566Z,16.70
2023-04-23T07:02:47.603Z,16.70
2023-04-23T07:05:15.076Z,16.90
2023-04-23T07:07:43.566Z,17.00
2023-04-23T07:10:13.500Z,17.10
2023-04-23T07:12:41.418Z,17.20
2023-04-23T07:15:09.180Z,17.40
2023-04-23T07:17:36.205Z,17.50
2023-04-23T07:20:06.651Z,17.60
2023-04-23T07:22:35.085Z,17.70
2023-04-23T07:25:02.697Z,17.80
2023-04-23T07:27:29.542Z,18.00
2023-04-23T07:29:56.493Z,18.10
2023-04-23T07:32:26.177Z,18.20
2023-04-23T07:34:53.392Z,18.30
2023-04-23T07:37:21.706Z,18.40
2023-04-23T07:39:49.239Z,18.40
2023-04-23T07:42:16.613Z,18.50
2023-04-23T07:44:43.646Z,18.50
2023-04-23T07:47:10.466Z,18.60
2023-04-23T07:49:37.490Z,18.70
2023-04-23T07:52:04.382Z,18.80
2023-04-23T07:54:31.227Z,18.90
2023-04-23T07:56:58.170Z,18.90
2023-04-23T07:59:24.920Z,19.00
2023-04-23T08:01:52.045Z,19.00
2023-04-23T08:04:19.101Z,19.00
2023-04-23T08:06:46.142Z,19.10
2023-04-23T08:09:12.881Z,19.10
2023-04-23T08:11:40.679Z,19.20
2023-04-23T08:14:07.739Z,19.30
2023-04-23T08:16:38.621Z,19.40
2023-04-23T08:19:06.532Z,19.40
2023-04-23T08:21:35.066Z,19.50
2023-04-23T08:24:03.222Z,19.60
2023-04-23T08:26:31.112Z,19.60
2023-04-23T08:28:58.029Z,19.60
2023-04-23T08:31:26.870Z,19.60
2023-04-23T08:33:54.677Z,19.60
2023-04-23T08:36:22.122Z,19.70
2023-04-23T08:38:49.089Z,19.70
2023-04-23T08:41:18.725Z,19.70
2023-04-23T08:43:52.741Z,19.70
2023-04-23T08:46:19.906Z,19.80
2023-04-23T08:48:50.428Z,19.80
2023-04-23T08:51:21.496Z,19.80
2023-04-23T08:53:56.120Z,19.80
2023-04-23T08:56:24.209Z,19.80
2023-04-23T08:58:51.288Z,19.90
2023-04-23T09:01:19.392Z,20.00
2023-04-23T09:03:47.944Z,20.00
2023-04-23T09:06:14.759Z,20.00
2023-04-23T09:08:41.980Z,20.00
2023-04-23T09:11:09.585Z,20.00
2023-04-23T09:13:37.084Z,20.00
2023-04-23T09:16:05.450Z,20.00
2023-04-23T09:18:32.448Z,20.10
2023-04-23T09:21:01.147Z,20.20
2023-04-23T09:23:27.914Z,20.20
2023-04-23T09:25:56.868Z,20.20
2023-04-23T09:28:38.100Z,20.20
2023-04-23T09:31:08.088Z,20.30
2023-04-23T09:33:38.452Z,20.30
2023-04-23T09:36:15.196Z,20.30
2023-04-23T09:38:42.207Z,20.30
2023-04-23T09:41:27.068Z,20.40
2023-04-23T09:43:55.498Z,20.40
2023-04-23T09:46:36.439Z,20.50
2023-04-23T09:49:07.756Z,20.50
2023-04-23T09:51:42.633Z,20.60
2023-04-23T09:54:13.794Z,20.70
2023-04-23T09:56:42.078Z,20.70
2023-04-23T09:59:32.057Z,20.70
2023-04-23T10:02:07.892Z,20.80
2023-04-23T10:04:35.970Z,20.80
2023-04-23T10:07:18.000Z,20.90
2023-04-23T10:09:47.237Z,20.90
2023-04-23T10:14:46.630Z,20.90
2023-04-23T10:17:14.102Z,20.90
2023-04-23T10:19:43.608Z,21.00
2023-04-23T10:24:47.915Z,21.00
2023-04-23T10:27:28.834Z,21.00
2023-04-23T10:30:06.419Z,21.10
2023-04-23T10:32:38.340Z,21.10
2023-04-23T10:35:07.368Z,21.10
2023-04-23T10:37:35.963Z,21.10
2023-04-23T10:40:14.334Z,21.10
2023-04-23T10:42:43.458Z,21.10
2023-04-23T10:47:48.219Z,21.10
2023-04-23T10:50:37.825Z,21.20
2023-04-23T10:53:05.573Z,21.20
2023-04-23T10:55:32.982Z,21.20
2023-04-23T10:58:08.441Z,21.20
2023-04-23T11:00:41.367Z,21.20
2023-04-23T11:03:53.169Z,21.20
2023-04-23T11:06:49.037Z,21.30
2023-04-23T11:09:36.391Z,21.30
2023-04-23T11:12:07.648Z,21.40
2023-04-23T11:14:43.618Z,21.40
2023-04-23T11:17:14.575Z,21.50
2023-04-23T11:19:42.366Z,21.60
2023-04-23T11:22:19.755Z,21.60
2023-04-23T11:24:48.885Z,21.70
2023-04-23T11:27:19.758Z,21.70
2023-04-23T11:29:47.817Z,21.80
2023-04-23T11:32:16.957Z,22.00
2023-04-23T11:34:45.423Z,22.10
2023-04-23T11:37:13.473Z,22.30
2023-04-23T11:39:42.131Z,22.70
2023-04-23T11:42:14.214Z,23.20
2023-04-23T11:44:42.500Z,23.80
2023-04-23T11:47:11.345Z,24.40
2023-04-23T11:49:39.073Z,25.10
2023-04-23T11:52:05.847Z,25.70
2023-04-23T11:54:33.565Z,26.30
2023-04-23T11:57:01.539Z,26.80
2023-04-23T11:59:28.812Z,27.20
2023-04-23T12:01:57.478Z,27.80
2023-04-23T12:04:29.787Z,28.70
2023-04-23T12:06:57.873Z,29.60
2023-04-23T12:09:27.254Z,30.40
2023-04-23T12:11:54.410Z,31.00
2023-04-23T12:14:30.077Z,31.80
2023-04-23T12:16:57.810Z,32.60
2023-04-23T12:19:29.549Z,33.40
2023-04-23T12:21:57.363Z,34.00
2023-04-23T12:24:28.949Z,34.10
2023-04-23T12:27:02.542Z,34.00
2023-04-23T12:29:30.962Z,33.70
2023-04-23T12:32:00.820Z,33.40
2023-04-23T12:34:27.554Z,33.10
2023-04-23T12:36:55.868Z,33.10
2023-04-23T12:39:34.089Z,33.40
2023-04-23T12:42:02.975Z,33.50
2023-04-23T12:44:30.477Z,33.50
2023-04-23T12:46:59.295Z,33.70
2023-04-23T12:49:29.819Z,33.90
2023-04-23T12:52:00.980Z,34.00
2023-04-23T12:54:29.775Z,34.00
2023-04-23T12:56:56.695Z,34.40
2023-04-23T12:59:23.906Z,34.70
2023-04-23T13:01:51.601Z,34.90
2023-04-23T13:04:18.494Z,35.10
2023-04-23T13:06:45.638Z,35.50
2023-04-23T13:09:12.814Z,36.10
2023-04-23T13:11:40.843Z,36.30
2023-04-23T13:14:08.220Z,36.60
2023-04-23T13:16:35.005Z,36.70
2023-04-23T13:19:01.766Z,36.90
2023-04-23T13:21:28.545Z,37.00
2023-04-23T13:23:56.432Z,37.00
2023-04-23T13:26:23.286Z,37.10
2023-04-23T13:28:50.105Z,37.00
2023-04-23T13:31:16.849Z,36.50
2023-04-23T13:33:43.718Z,35.90
2023-04-23T13:36:10.418Z,35.60
2023-04-23T13:38:37.184Z,35.60
2023-04-23T13:41:04.508Z,35.70
2023-04-23T13:43:31.333Z,35.90
2023-04-23T13:45:58.250Z,36.20
2023-04-23T13:48:28.788Z,36.40
2023-04-23T13:50:55.863Z,36.80
2023-04-23T13:53:22.885Z,37.00
2023-04-23T13:55:49.751Z,36.80
2023-04-23T13:58:16.638Z,36.60
2023-04-23T14:00:43.963Z,36.60
2023-04-23T14:03:11.130Z,36.80
2023-04-23T14:05:38.522Z,36.80
2023-04-23T14:08:05.485Z,36.60
2023-04-23T14:10:32.732Z,36.20
2023-04-23T14:12:59.593Z,35.80
2023-04-23T14:15:26.535Z,35.50
2023-04-23T14:17:53.414Z,35.50
2023-04-23T14:20:20.890Z,35.60
2023-04-23T14:23:02.778Z,35.70
2023-04-23T14:25:40.682Z,35.50
2023-04-23T14:28:33.313Z,35.30
2023-04-23T14:31:01.575Z,35.30
2023-04-23T14:33:28.345Z,34.80
2023-04-23T14:35:55.249Z,34.40
2023-04-23T14:38:22.039Z,33.80
2023-04-23T14:40:48.768Z,33.10
2023-04-23T14:43:16.357Z,32.60
2023-04-23T14:45:43.366Z,32.30
2023-04-23T14:48:10.613Z,32.30
2023-04-23T14:50:37.382Z,32.50
2023-04-23T14:53:07.104Z,32.80
2023-04-23T14:55:34.359Z,32.80
2023-04-23T14:58:01.599Z,32.90
2023-04-23T15:00:28.729Z,32.90
2023-04-23T15:02:56.602Z,33.00
2023-04-23T15:05:23.786Z,33.10
2023-04-23T15:07:51.877Z,32.90
2023-04-23T15:10:19.834Z,32.80
2023-04-23T15:13:08.390Z,32.90
2023-04-23T15:15:49.527Z,33.20
2023-04-23T15:18:17.124Z,33.50
2023-04-23T15:20:44.545Z,33.90
2023-04-23T15:23:11.549Z,34.00
2023-04-23T15:25:39.510Z,34.00
2023-04-23T15:28:07.123Z,33.70
2023-04-23T15:30:34.162Z,33.40
2023-04-23T15:33:01.054Z,32.90
2023-04-23T15:35:28.390Z,32.40
2023-04-23T15:37:55.328Z,32.10
2023-04-23T15:40:22.151Z,31.80
2023-04-23T15:42:50.126Z,31.50
2023-04-23T15:45:17.204Z,31.30
2023-04-23T15:47:44.356Z,31.00
2023-04-23T15:50:12.845Z,30.80
2023-04-23T15:52:41.792Z,30.80
2023-04-23T15:55:09.074Z,30.80
2023-04-23T15:57:35.810Z,30.60
2023-04-23T16:00:04.384Z,30.40
2023-04-23T16:02:34.550Z,30.10
2023-04-23T16:05:01.894Z,29.80
2023-04-23T16:07:28.815Z,29.40
2023-04-23T16:09:55.867Z,29.00
2023-04-23T16:12:22.672Z,28.50
2023-04-23T16:14:49.602Z,28.10
2023-04-23T16:17:16.687Z,27.80
2023-04-23T16:19:43.833Z,27.30
2023-04-23T16:22:10.867Z,26.90
2023-04-23T16:24:37.688Z,26.60
2023-04-23T16:27:06.704Z,26.30
2023-04-23T16:29:33.544Z,26.10
2023-04-23T16:32:00.329Z,25.80
2023-04-23T16:34:27.057Z,25.60
2023-04-23T16:36:53.878Z,25.40
2023-04-23T16:39:20.822Z,25.10
2023-04-23T16:41:47.982Z,24.90
2023-04-23T16:44:14.671Z,24.60
2023-04-23T16:46:41.560Z,24.40
2023-04-23T16:49:08.513Z,24.30
2023-04-23T16:51:35.293Z,24.10
2023-04-23T16:54:01.980Z,23.90
2023-04-23T16:56:28.798Z,23.70
2023-04-23T16:58:55.877Z,23.50
2023-04-23T17:01:22.761Z,23.40
2023-04-23T17:03:49.657Z,23.20
2023-04-23T17:06:29.727Z,23.10
2023-04-23T17:08:57.834Z,22.90
2023-04-23T17:11:25.813Z,22.80
2023-04-23T17:13:52.954Z,22.60
2023-04-23T17:16:20.045Z,22.50
2023-04-23T17:18:46.848Z,22.40
2023-04-23T17:21:13.765Z,22.30
2023-04-23T17:23:40.473Z,22.20
2023-04-23T17:26:07.288Z,22.10
2023-04-23T17:28:34.032Z,22.00
2023-04-23T17:31:02.672Z,21.90
2023-04-23T17:33:29.947Z,21.70
2023-04-23T17:35:57.130Z,21.60
2023-04-23T17:38:24.717Z,21.50
2023-04-23T17:40:52.775Z,21.40
2023-04-23T17:43:20.049Z,21.30
2023-04-23T17:45:47.701Z,21.10
2023-04-23T17:48:15.348Z,21.00
2023-04-23T17:50:42.841Z,20.90
2023-04-23T17:53:09.989Z,20.70
2023-04-23T17:55:36.681Z,20.70
2023-04-23T17:58:05.717Z,20.60
2023-04-23T18:00:36.708Z,20.50
2023-04-23T18:03:04.380Z,20.40
2023-04-23T18:05:31.734Z,20.20
2023-04-23T18:07:58.654Z,20.20
2023-04-23T18:10:25.656Z,20.10
2023-04-23T18:12:52.818Z,20.00
2023-04-23T18:15:20.245Z,19.90
2023-04-23T18:17:48.242Z,19.90
2023-04-23T18:20:16.407Z,19.80
2023-04-23T18:22:44.365Z,19.70
2023-04-23T18:25:11.550Z,19.60
2023-04-23T18:27:39.103Z,19.60
2023-04-23T18:30:08.291Z,19.50
2023-04-23T18:32:40.911Z,19.40
2023-04-23T18:35:09.084Z,19.30
2023-04-23T18:37:53.520Z,19.30
2023-04-23T18:40:20.590Z,19.20
2023-04-23T18:42:47.446Z,19.20
2023-04-23T18:45:14.262Z,19.10
2023-04-23T18:47:51.189Z,19.00
2023-04-23T18:50:43.372Z,19.00
2023-04-23T18:53:10.325Z,18.90
2023-04-23T18:55:38.172Z,18.80
2023-04-23T18:58:05.133Z,18.80
2023-04-23T19:00:31.969Z,18.70
2023-04-23T19:02:58.998Z,18.70
2023-04-23T19:05:26.228Z,18.60
2023-04-23T19:07:53.238Z,18.60
2023-04-23T19:10:20.238Z,18.50
2023-04-23T19:12:47.004Z,18.40
2023-04-23T19:15:15.613Z,18.40
2023-04-23T19:17:42.768Z,18.40
2023-04-23T19:20:11.471Z,18.30
2023-04-23T19:22:41.731Z,18.30
2023-04-23T19:25:09.377Z,18.30
2023-04-23T19:27:36.452Z,18.20
2023-04-23T19:30:05.439Z,18.10
2023-04-23T19:32:35.624Z,18.10
2023-04-23T19:35:04.546Z,18.10
2023-04-23T19:37:32.308Z,18.00
2023-04-23T19:39:59.663Z,18.00
2023-04-23T19:42:26.501Z,17.90
2023-04-23T19:44:53.292Z,17.80
2023-04-23T19:47:20.206Z,17.80
2023-04-23T19:49:47.030Z,17.80
2023-04-23T19:52:21.462Z,17.70
2023-04-23T19:54:49.973Z,17.70
2023-04-23T19:57:22.153Z,17.70
2023-04-23T19:59:54.709Z,17.60
2023-04-23T20:02:21.654Z,17.60
2023-04-23T20:04:48.731Z,17.50
2023-04-23T20:07:15.483Z,17.50
2023-04-23T20:09:43.536Z,17.40
2023-04-23T20:12:12.586Z,17.40
2023-04-23T20:14:39.311Z,17.40
2023-04-23T20:17:06.806Z,17.40
2023-04-23T20:19:33.824Z,17.40
2023-04-23T20:22:02.534Z,17.40
2023-04-23T20:24:29.743Z,17.30
2023-04-23T20:26:58.634Z,17.30
2023-04-23T20:29:25.748Z,17.30
2023-04-23T20:31:52.898Z,17.30
2023-04-23T20:34:19.859Z,17.30
2023-04-23T20:36:51.225Z,17.30
2023-04-23T20:39:22.243Z,17.30
2023-04-23T20:41:50.618Z,17.30
2023-04-23T20:44:18.153Z,17.20
2023-04-23T20:46:45.420Z,17.20
2023-04-23T20:49:12.352Z,17.20
2023-04-23T20:51:39.243Z,17.20
2023-04-23T20:54:07.105Z,17.20
2023-04-23T20:56:33.948Z,17.10
2023-04-23T20:59:00.888Z,17.10
2023-04-23T21:01:27.967Z,17.10
2023-04-23T21:03:55.340Z,17.00
2023-04-23T21:06:22.799Z,16.90
2023-04-23T21:08:49.809Z,16.90
2023-04-23T21:11:18.562Z,16.80
2023-04-23T21:13:46.439Z,16.80
2023-04-23T21:16:13.806Z,16.70
2023-04-23T21:18:41.646Z,16.60
2023-04-23T21:21:08.625Z,16.60
2023-04-23T21:23:35.968Z,16.50
2023-04-23T21:26:03.447Z,16.50
2023-04-23T21:28:31.160Z,16.40
2023-04-23T21:31:05.956Z,16.30
2023-04-23T21:33:32.878Z,16.20
2023-04-23T21:35:59.766Z,16.10
2023-04-23T21:38:26.661Z,16.00
2023-04-23T21:40:53.953Z,15.90
2023-04-23T21:43:21.190Z,15.90
2023-04-23T21:45:48.099Z,15.80
2023-04-23T21:48:15.148Z,15.70
2023-04-23T21:50:42.113Z,15.70
2023-04-23T21:53:09.788Z,15.60
2023-04-23T21:55:36.841Z,15.50
2023-04-23T21:58:16.638Z,15.40
2023-04-23T22:00:45.291Z,15.30
2023-04-23T22:03:17.040Z,15.30
2023-04-23T22:05:52.685Z,15.20
2023-04-23T22:08:20.671Z,15.20
2023-04-23T22:10:47.491Z,15.20
2023-04-23T22:13:15.094Z,15.10
2023-04-23T22:15:42.429Z,15.10
2023-04-23T22:18:09.360Z,15.00
2023-04-23T22:20:37.693Z,15.00
2023-04-23T22:23:04.749Z,15.00
2023-04-23T22:25:31.638Z,14.80
2023-04-23T22:27:59.066Z,14.70
2023-04-23T22:30:26.032Z,14.70
2023-04-23T22:32:53.081Z,14.70
2023-04-23T22:35:20.135Z,14.60
2023-04-23T22:37:47.182Z,14.60
2023-04-23T22:40:14.034Z,14.60
2023-04-23T22:42:42.388Z,14.60
2023-04-23T22:45:09.698Z,14.60
2023-04-23T22:47:37.037Z,14.60
2023-04-23T22:50:04.762Z,14.50
2023-04-23T22:52:31.928Z,14.50
2023-04-23T22:54:58.772Z,14.40
2023-04-23T22:57:25.712Z,14.40
2023-04-23T22:59:52.717Z,14.30
2023-04-23T23:02:19.675Z,14.30
2023-04-23T23:04:46.806Z,14.20
2023-04-23T23:07:14.680Z,14.10
2023-04-23T23:09:41.817Z,14.10
2023-04-23T23:12:09.322Z,14.10
2023-04-23T23:14:37.880Z,14.10
2023-04-23T23:17:06.449Z,14.00
2023-04-23T23:19:33.878Z,14.00
2023-04-23T23:22:00.992Z,13.90
2023-04-23T23:24:28.018Z,13.90
2023-04-23T23:26:54.823Z,13.90
2023-04-23T23:29:22.091Z,13.80
2023-04-23T23:31:49.154Z,13.80
2023-04-23T23:34:15.970Z,13.80
2023-04-23T23:36:45.049Z,13.80
2023-04-23T23:39:13.283Z,13.80
2023-04-23T23:41:40.217Z,13.70
2023-04-23T23:44:07.066Z,13.80
2023-04-23T23:46:34.945Z,13.70
2023-04-23T23:49:03.823Z,13.70
2023-04-23T23:51:31.014Z,13.60
2023-04-23T23:53:59.054Z,13.50
2023-04-23T23:56:26.051Z,13.50
2023-04-23T23:58:53.938Z,13.40
